createdAt,value
2023-10-09T00:00:01.232Z,985.23
2023-10-09T00:01:01.211Z,985.23
2023-10-09T00:02:01.260Z,985.20
2023-10-09T00:03:01.254Z,985.19
2023-10-09T00:04:01.206Z,985.21
2023-10-09T00:05:01.165Z,985.17
2023-10-09T00:06:01.252Z,985.13
2023-10-09T00:07:01.255Z,985.15
2023-10-09T00:08:01.098Z,985.19
2023-10-09T00:09:01.198Z,985.16
2023-10-09T00:10:01.081Z,985.16
2023-10-09T00:11:01.069Z,985.17
2023-10-09T00:12:01.062Z,985.11
2023-10-09T00:13:01.025Z,985.12
2023-10-09T00:14:01.016Z,985.18
2023-10-09T00:15:01.028Z,985.14
2023-10-09T00:16:01.021Z,985.12
2023-10-09T00:17:00.979Z,985.14
2023-10-09T00:18:00.995Z,985.08
2023-10-09T00:19:00.970Z,985.09
2023-10-09T00:20:01.361Z,985.07
2023-10-09T00:21:00.941Z,985.07
2023-10-09T00:22:00.917Z,985.05
2023-10-09T00:23:00.918Z,985.02
2023-10-09T00:24:00.909Z,985.00
2023-10-09T00:25:00.894Z,984.98
2023-10-09T00:26:00.944Z,985.01
2023-10-09T00:27:00.873Z,985.02
2023-10-09T00:28:00.859Z,985.01
2023-10-09T00:29:00.819Z,985.00
2023-10-09T00:30:00.811Z,984.98
2023-10-09T00:31:00.841Z,985.01
2023-10-09T00:32:00.781Z,984.95
2023-10-09T00:33:01.323Z,984.95
2023-10-09T00:34:00.750Z,984.94
2023-10-09T00:35:00.741Z,984.98
2023-10-09T00:36:00.745Z,984.92
2023-10-09T00:37:00.703Z,984.92
2023-10-09T00:38:00.719Z,984.88
2023-10-09T00:39:00.751Z,984.84
2023-10-09T00:40:00.690Z,984.84
2023-10-09T00:41:00.682Z,984.81
2023-10-09T00:42:00.709Z,984.74
2023-10-09T00:43:00.628Z,984.77
2023-10-09T00:44:00.778Z,984.69
2023-10-09T00:45:00.657Z,984.70
2023-10-09T00:46:00.633Z,984.69
2023-10-09T00:47:00.609Z,984.62
2023-10-09T00:48:00.641Z,984.65
2023-10-09T00:49:00.538Z,984.61
2023-10-09T00:50:00.584Z,984.62
2023-10-09T00:51:00.549Z,984.58
2023-10-09T00:52:00.510Z,984.55
2023-10-09T00:53:00.488Z,984.53
2023-10-09T00:54:00.666Z,984.52
2023-10-09T00:55:00.462Z,984.48
2023-10-09T00:56:00.464Z,984.44
2023-10-09T00:57:00.479Z,984.46
2023-10-09T00:58:00.424Z,984.44
2023-10-09T00:59:00.416Z,984.45
2023-10-09T01:00:00.524Z,984.37
2023-10-09T01:01:00.388Z,984.42
2023-10-09T01:02:00.451Z,984.38
2023-10-09T01:03:00.493Z,984.34
2023-10-09T01:04:00.526Z,984.39
2023-10-09T01:05:00.358Z,984.35
2023-10-09T01:06:00.349Z,984.39
2023-10-09T01:07:00.315Z,984.36
2023-10-09T01:08:00.313Z,984.36
2023-10-09T01:09:00.305Z,984.39
2023-10-09T01:10:00.345Z,984.34
2023-10-09T01:11:00.262Z,984.40
2023-10-09T01:12:00.383Z,984.39
2023-10-09T01:13:00.244Z,984.39
2023-10-09T01:14:00.224Z,984.40
2023-10-09T01:15:00.285Z,984.36
2023-10-09T01:16:00.215Z,984.44
2023-10-09T01:17:00.182Z,984.39
2023-10-09T01:18:00.336Z,984.34
2023-10-09T01:19:00.170Z,984.33
2023-10-09T01:20:00.229Z,984.33
2023-10-09T01:21:00.165Z,984.31
2023-10-09T01:22:00.127Z,984.37
2023-10-09T01:23:00.126Z,984.30
2023-10-09T01:24:00.172Z,984.29
2023-10-09T01:25:00.076Z,984.27
2023-10-09T01:26:00.127Z,984.27
2023-10-09T01:27:00.130Z,984.27
2023-10-09T01:28:00.094Z,984.26
2023-10-09T01:29:00.044Z,984.27
2023-10-09T01:30:00.057Z,984.20
2023-10-09T01:31:00.052Z,984.21
2023-10-09T01:32:00.001Z,984.19
2023-10-09T01:33:00.063Z,984.23
2023-10-09T01:34:00.059Z,984.18
2023-10-09T01:34:59.961Z,984.17
2023-10-09T01:35:59.962Z,984.27
2023-10-09T01:36:59.922Z,984.21
2023-10-09T01:37:59.927Z,984.10
2023-10-09T01:38:59.914Z,984.06
2023-10-09T01:39:59.878Z,984.05
2023-10-09T01:40:59.878Z,984.04
2023-10-09T01:42:00.045Z,984.03
2023-10-09T01:42:59.868Z,984.07
2023-10-09T01:43:59.819Z,984.01
2023-10-09T01:44:59.906Z,984.02
2023-10-09T01:45:59.858Z,983.99
2023-10-09T01:46:59.800Z,983.96
2023-10-09T01:47:59.839Z,983.95
2023-10-09T01:48:59.776Z,983.92
2023-10-09T01:49:59.752Z,983.95
2023-10-09T01:50:59.766Z,983.92
2023-10-09T01:51:59.717Z,983.90
2023-10-09T01:52:59.709Z,983.82
2023-10-09T01:53:59.703Z,983.79
2023-10-09T01:54:59.673Z,983.79
2023-10-09T01:55:59.700Z,983.78
2023-10-09T01:56:59.668Z,983.76
2023-10-09T01:57:59.884Z,983.77
2023-10-09T01:58:59.634Z,983.78
2023-10-09T01:59:59.640Z,983.78
2023-10-09T02:00:59.682Z,983.76
2023-10-09T02:01:59.603Z,983.73
2023-10-09T02:02:59.669Z,983.70
2023-10-09T02:03:59.610Z,983.73
2023-10-09T02:04:59.552Z,983.73
2023-10-09T02:05:59.595Z,983.80
2023-10-09T02:06:59.524Z,983.79
2023-10-09T02:07:59.516Z,983.77
2023-10-09T02:08:59.494Z,983.80
2023-10-09T02:09:59.476Z,983.79
2023-10-09T02:10:59.459Z,983.81
2023-10-09T02:11:59.484Z,983.85
2023-10-09T02:12:59.661Z,983.83
2023-10-09T02:13:59.429Z,983.80
2023-10-09T02:14:59.444Z,983.80
2023-10-09T02:15:59.428Z,983.76
2023-10-09T02:16:59.411Z,983.74
2023-10-09T02:17:59.441Z,983.74
2023-10-09T02:18:59.390Z,983.73
2023-10-09T02:19:59.359Z,983.68
2023-10-09T02:20:59.397Z,983.73
2023-10-09T02:21:59.361Z,983.73
2023-10-09T02:22:59.322Z,983.69
2023-10-09T02:23:59.337Z,983.69
2023-10-09T02:24:59.469Z,983.72
2023-10-09T02:25:59.287Z,983.70
2023-10-09T02:26:59.356Z,983.71
2023-10-09T02:27:59.268Z,983.65
2023-10-09T02:28:59.244Z,983.62
2023-10-09T02:29:59.281Z,983.59
2023-10-09T02:30:59.235Z,983.57
2023-10-09T02:31:59.189Z,983.57
2023-10-09T02:32:59.275Z,983.56
2023-10-09T02:33:59.171Z,983.58
2023-10-09T02:34:59.166Z,983.53
2023-10-09T02:35:59.203Z,983.59
2023-10-09T02:36:59.304Z,983.56
2023-10-09T02:37:59.136Z,983.54
2023-10-09T02:38:59.125Z,983.57
2023-10-09T02:39:59.106Z,983.58
2023-10-09T02:40:59.088Z,983.57
2023-10-09T02:41:59.119Z,983.55
2023-10-09T02:42:59.068Z,983.49
2023-10-09T02:43:59.041Z,983.48
2023-10-09T02:44:59.134Z,983.48
2023-10-09T02:45:59.016Z,983.48
2023-10-09T02:46:59.095Z,983.49
2023-10-09T02:47:59.086Z,983.47
2023-10-09T02:48:58.982Z,983.48
2023-10-09T02:49:58.998Z,983.41
2023-10-09T02:50:58.982Z,983.42
2023-10-09T02:51:58.970Z,983.45
2023-10-09T02:52:58.912Z,983.42
2023-10-09T02:53:59.008Z,983.41
2023-10-09T02:54:58.927Z,983.45
2023-10-09T02:55:58.877Z,983.46
2023-10-09T02:56:58.887Z,983.46
2023-10-09T02:57:58.870Z,983.47
2023-10-09T02:58:58.855Z,983.48
2023-10-09T02:59:58.881Z,983.46
2023-10-09T03:00:58.891Z,983.50
2023-10-09T03:01:58.801Z,983.47
2023-10-09T03:02:58.884Z,983.46
2023-10-09T03:03:58.815Z,983.45
2023-10-09T03:04:58.781Z,983.52
2023-10-09T03:05:58.783Z,983.43
2023-10-09T03:06:58.760Z,983.49
2023-10-09T03:07:58.728Z,983.48
2023-10-09T03:08:58.730Z,983.43
2023-10-09T03:09:58.704Z,983.51
2023-10-09T03:10:58.731Z,983.51
2023-10-09T03:11:58.710Z,983.51
2023-10-09T03:12:58.657Z,983.51
2023-10-09T03:13:58.638Z,983.53
2023-10-09T03:14:58.681Z,983.55
2023-10-09T03:15:58.630Z,983.53
2023-10-09T03:16:58.651Z,983.52
2023-10-09T03:17:58.686Z,983.55
2023-10-09T03:18:58.585Z,983.52
2023-10-09T03:19:58.569Z,983.55
2023-10-09T03:20:58.622Z,983.49
2023-10-09T03:21:58.747Z,983.54
2023-10-09T03:22:58.565Z,983.45
2023-10-09T03:23:58.576Z,983.46
2023-10-09T03:24:58.525Z,983.47
2023-10-09T03:26:10.764Z,983.37
2023-10-09T03:26:59.526Z,983.40
2023-10-09T03:27:58.492Z,983.34
2023-10-09T03:28:58.464Z,983.31
2023-10-09T03:29:58.471Z,983.33
2023-10-09T03:30:58.488Z,983.31
2023-10-09T03:31:58.453Z,983.28
2023-10-09T03:32:58.464Z,983.32
2023-10-09T03:33:58.412Z,983.31
2023-10-09T03:34:58.387Z,983.33
2023-10-09T03:35:58.421Z,983.32
2023-10-09T03:36:58.355Z,983.32
2023-10-09T03:37:58.388Z,983.41
2023-10-09T03:38:58.389Z,983.30
2023-10-09T03:39:58.304Z,983.31
2023-10-09T03:40:58.307Z,983.26
2023-10-09T03:41:58.319Z,983.33
2023-10-09T03:42:58.293Z,983.35
2023-10-09T03:43:58.259Z,983.28
2023-10-09T03:44:58.291Z,983.26
2023-10-09T03:45:58.241Z,983.31
2023-10-09T03:46:58.227Z,983.17
2023-10-09T03:47:58.259Z,983.20
2023-10-09T03:48:58.225Z,983.19
2023-10-09T04:03:22.793Z,983.13
2023-10-09T04:04:22.689Z,983.10
2023-10-09T04:05:22.615Z,983.19
2023-10-09T04:06:22.691Z,983.19
2023-10-09T04:07:22.812Z,983.15
2023-10-09T04:08:22.580Z,983.09
2023-10-09T04:09:22.593Z,983.12
2023-10-09T04:10:22.552Z,983.13
2023-10-09T04:11:22.553Z,983.11
2023-10-09T04:12:22.810Z,983.12
2023-10-09T04:13:22.534Z,983.10
2023-10-09T04:14:22.501Z,983.13
2023-10-09T04:15:22.522Z,983.18
2023-10-09T04:16:22.491Z,983.20
2023-10-09T04:17:22.461Z,983.20
2023-10-09T04:18:22.489Z,983.19
2023-10-09T04:19:22.466Z,983.21
2023-10-09T04:20:22.440Z,983.14
2023-10-09T04:21:22.471Z,983.16
2023-10-09T04:22:22.397Z,983.10
2023-10-09T04:23:22.374Z,983.15
2023-10-09T04:24:22.439Z,983.15
2023-10-09T04:25:22.373Z,983.20
2023-10-09T04:26:22.358Z,983.19
2023-10-09T04:27:22.416Z,983.19
2023-10-09T04:28:22.324Z,983.17
2023-10-09T04:29:22.312Z,983.19
2023-10-09T04:30:22.328Z,983.21
2023-10-09T04:31:22.341Z,983.22
2023-10-09T04:32:22.291Z,983.16
2023-10-09T04:33:22.269Z,983.22
2023-10-09T04:34:22.241Z,983.17
2023-10-09T04:35:22.216Z,983.12
2023-10-09T04:36:22.654Z,983.14
2023-10-09T04:37:22.222Z,983.12
2023-10-09T04:38:23.267Z,983.15
2023-10-09T04:39:22.176Z,983.06
2023-10-09T04:40:22.169Z,983.00
2023-10-09T04:41:22.153Z,982.97
2023-10-09T04:42:22.163Z,983.05
2023-10-09T04:43:22.149Z,982.99
2023-10-09T04:44:22.128Z,982.96
2023-10-09T04:45:22.142Z,982.94
2023-10-09T04:46:22.115Z,982.93
2023-10-09T04:47:22.091Z,982.93
2023-10-09T04:48:22.132Z,982.90
2023-10-09T04:49:22.077Z,982.88
2023-10-09T04:50:22.048Z,982.90
2023-10-09T04:51:22.102Z,982.91
2023-10-09T04:52:22.027Z,982.91
2023-10-09T04:53:22.028Z,982.91
2023-10-09T04:54:22.126Z,982.90
2023-10-09T04:55:21.983Z,982.91
2023-10-09T04:56:21.957Z,982.91
2023-10-09T04:57:21.977Z,982.92
2023-10-09T04:58:21.922Z,982.93
2023-10-09T04:59:21.967Z,982.97
2023-10-09T05:00:21.961Z,982.94
2023-10-09T05:01:21.945Z,983.01
2023-10-09T05:02:21.874Z,982.96
2023-10-09T05:03:21.873Z,982.95
2023-10-09T05:04:22.035Z,982.91
2023-10-09T05:05:21.856Z,982.93
2023-10-09T05:06:21.910Z,982.88
2023-10-09T05:07:21.816Z,982.95
2023-10-09T05:08:21.816Z,982.89
2023-10-09T05:09:21.836Z,982.93
2023-10-09T05:10:21.796Z,982.88
2023-10-09T05:11:22.144Z,982.90
2023-10-09T05:12:21.767Z,982.92
2023-10-09T05:13:21.748Z,982.98
2023-10-09T05:14:21.736Z,982.97
2023-10-09T05:15:21.756Z,983.00
2023-10-09T05:16:21.798Z,982.93
2023-10-09T05:17:21.692Z,983.00
2023-10-09T05:18:21.746Z,983.06
2023-10-09T05:19:21.680Z,983.08
2023-10-09T05:20:21.656Z,983.09
2023-10-09T05:21:21.693Z,982.96
2023-10-09T05:22:21.641Z,983.07
2023-10-09T05:23:21.612Z,983.05
2023-10-09T05:24:21.632Z,983.03
2023-10-09T05:25:21.581Z,983.06
2023-10-09T05:26:21.568Z,983.12
2023-10-09T05:27:21.594Z,983.10
2023-10-09T05:28:21.542Z,983.14
2023-10-09T05:29:21.548Z,983.17
2023-10-09T05:30:21.529Z,983.06
2023-10-09T05:31:21.541Z,983.13
2023-10-09T05:32:21.496Z,983.16
2023-10-09T05:33:21.717Z,983.21
2023-10-09T05:34:21.477Z,983.21
2023-10-09T05:35:21.449Z,983.24
2023-10-09T05:36:21.450Z,983.21
2023-10-09T05:37:21.457Z,983.26
2023-10-09T05:38:21.417Z,983.35
2023-10-09T05:39:21.447Z,983.35
2023-10-09T05:40:21.389Z,983.41
2023-10-09T05:41:21.392Z,983.30
2023-10-09T05:42:21.398Z,983.29
2023-10-09T05:43:21.376Z,983.28
2023-10-09T05:44:21.347Z,983.24
2023-10-09T05:45:21.382Z,983.13
2023-10-09T05:46:21.331Z,983.18
2023-10-09T05:47:21.310Z,983.12
2023-10-09T05:48:21.345Z,983.08
2023-10-09T05:49:21.577Z,983.16
2023-10-09T05:50:21.275Z,983.12
2023-10-09T05:51:21.293Z,983.04
2023-10-09T05:52:21.248Z,983.02
2023-10-09T05:53:21.266Z,982.94
2023-10-09T05:54:21.239Z,982.96
2023-10-09T05:55:21.208Z,982.94
2023-10-09T05:56:21.200Z,983.00
2023-10-09T05:57:21.220Z,982.98
2023-10-09T05:58:21.166Z,983.01
2023-10-09T05:59:21.178Z,983.06
2023-10-09T06:00:21.173Z,983.08
2023-10-09T06:01:21.162Z,983.16
2023-10-09T06:02:21.113Z,983.20
2023-10-09T06:03:21.345Z,983.16
2023-10-09T06:04:21.534Z,983.20
2023-10-09T06:05:21.137Z,983.21
2023-10-09T06:06:21.083Z,983.22
2023-10-09T06:07:21.049Z,983.11
2023-10-09T06:08:21.033Z,983.16
2023-10-09T06:09:21.145Z,983.18
2023-10-09T06:10:21.014Z,983.20
2023-10-09T06:11:20.985Z,983.19
2023-10-09T06:12:21.055Z,983.22
2023-10-09T06:13:21.011Z,983.25
2023-10-09T06:14:20.972Z,983.17
2023-10-09T06:15:21.172Z,983.25
2023-10-09T06:16:21.108Z,983.24
2023-10-09T06:17:20.930Z,983.22
2023-10-09T06:18:20.966Z,983.19
2023-10-09T06:19:20.916Z,983.20
2023-10-09T06:20:20.926Z,983.18
2023-10-09T06:21:20.944Z,983.20
2023-10-09T06:22:20.857Z,983.19
2023-10-09T06:23:20.849Z,983.25
2023-10-09T06:24:20.884Z,983.15
2023-10-09T06:25:20.860Z,983.18
2023-10-09T06:26:20.816Z,983.20
2023-10-09T06:27:20.804Z,983.14
2023-10-09T06:28:20.792Z,983.18
2023-10-09T06:29:20.762Z,983.18
2023-10-09T06:30:20.848Z,983.22
2023-10-09T06:31:20.823Z,983.16
2023-10-09T06:32:20.717Z,983.18
2023-10-09T06:33:21.578Z,983.20
2023-10-09T06:34:20.688Z,983.11
2023-10-09T06:35:20.676Z,983.15
2023-10-09T06:36:20.700Z,983.15
2023-10-09T06:37:20.652Z,983.14
2023-10-09T06:38:20.641Z,983.16
2023-10-09T06:39:20.652Z,983.25
2023-10-09T06:40:20.622Z,983.16
2023-10-09T06:41:20.624Z,983.26
2023-10-09T06:42:20.613Z,983.24
2023-10-09T06:43:20.589Z,983.19
2023-10-09T06:44:20.565Z,983.26
2023-10-09T06:45:20.599Z,983.24
2023-10-09T06:46:20.725Z,983.17
2023-10-09T06:47:20.543Z,983.17
2023-10-09T06:48:20.606Z,983.25
2023-10-09T06:49:20.536Z,983.25
2023-10-09T06:50:20.497Z,983.25
2023-10-09T06:51:20.524Z,983.24
2023-10-09T06:52:20.478Z,983.25
2023-10-09T06:53:25.691Z,983.29
2023-10-09T06:54:21.461Z,983.28
2023-10-09T06:55:20.496Z,983.23
2023-10-09T06:56:20.472Z,983.31
2023-10-09T06:57:20.508Z,983.23
2023-10-09T06:58:20.387Z,983.23
2023-10-09T06:59:20.388Z,983.26
2023-10-09T07:00:20.393Z,983.21
2023-10-09T07:01:20.390Z,983.23
2023-10-09T07:02:20.353Z,983.26
2023-10-09T07:03:20.492Z,983.28
2023-10-09T07:04:21.135Z,983.33
2023-10-09T07:05:20.312Z,983.30
2023-10-09T07:06:20.332Z,983.32
2023-10-09T07:07:20.289Z,983.30
2023-10-09T07:08:20.250Z,983.36
2023-10-09T07:09:20.417Z,983.34
2023-10-09T07:10:20.265Z,983.40
2023-10-09T07:11:20.220Z,983.40
2023-10-09T07:12:20.279Z,983.45
2023-10-09T07:13:20.182Z,983.42
2023-10-09T07:14:20.178Z,983.41
2023-10-09T07:15:20.182Z,983.45
2023-10-09T07:16:20.198Z,983.49
2023-10-09T07:17:20.150Z,983.54
2023-10-09T07:18:20.471Z,983.49
2023-10-09T07:19:20.115Z,983.50
2023-10-09T07:20:20.104Z,983.50
2023-10-09T07:21:20.126Z,983.50
2023-10-09T07:22:20.078Z,983.50
2023-10-09T07:23:20.069Z,983.43
2023-10-09T07:24:20.096Z,983.47
2023-10-09T07:25:20.038Z,983.47
2023-10-09T07:26:20.042Z,983.50
2023-10-09T07:27:20.043Z,983.46
2023-10-09T07:28:20.028Z,983.51
2023-10-09T07:29:19.980Z,983.55
2023-10-09T07:30:19.970Z,983.53
2023-10-09T07:31:19.973Z,983.54
2023-10-09T07:32:19.965Z,983.53
2023-10-09T07:33:19.988Z,983.50
2023-10-09T07:34:19.915Z,983.52
2023-10-09T07:35:19.903Z,983.55
2023-10-09T07:36:19.922Z,983.57
2023-10-09T07:37:19.917Z,983.58
2023-10-09T07:38:19.871Z,983.56
2023-10-09T07:39:19.885Z,983.52
2023-10-09T07:40:19.845Z,983.61
2023-10-09T07:41:19.843Z,983.58
2023-10-09T07:42:19.894Z,983.62
2023-10-09T07:43:19.826Z,983.66
2023-10-09T07:44:19.812Z,983.64
2023-10-09T07:45:19.870Z,983.67
2023-10-09T07:46:19.808Z,983.68
2023-10-09T07:47:19.762Z,983.70
2023-10-09T07:48:19.776Z,983.69
2023-10-09T07:49:19.728Z,983.68
2023-10-09T07:50:19.706Z,983.76
2023-10-09T07:51:19.732Z,983.70
2023-10-09T07:52:19.690Z,983.75
2023-10-09T07:53:19.699Z,983.77
2023-10-09T07:54:19.671Z,983.77
2023-10-09T07:55:19.674Z,983.73
2023-10-09T07:56:20.721Z,983.74
2023-10-09T07:57:19.650Z,983.73
2023-10-09T07:58:19.610Z,983.70
2023-10-09T07:59:19.891Z,983.70
2023-10-09T08:00:19.604Z,983.72
2023-10-09T08:01:19.601Z,983.70
2023-10-09T08:02:19.595Z,983.76
2023-10-09T08:03:19.599Z,983.83
2023-10-09T08:04:19.763Z,983.76
2023-10-09T08:05:19.535Z,983.83
2023-10-09T08:06:19.546Z,983.92
2023-10-09T08:08:08.410Z,983.81
2023-10-09T08:08:31.530Z,983.81
2023-10-09T08:09:23.261Z,983.84
2023-10-09T08:10:19.498Z,983.82
2023-10-09T08:11:19.456Z,983.80
2023-10-09T08:12:19.477Z,983.76
2023-10-09T08:13:19.429Z,983.78
2023-10-09T08:14:19.423Z,983.84
2023-10-09T08:15:19.615Z,983.78
2023-10-09T08:16:19.420Z,983.82
2023-10-09T08:17:19.405Z,983.74
2023-10-09T08:18:19.435Z,983.78
2023-10-09T08:19:19.352Z,983.82
2023-10-09T08:20:19.343Z,983.88
2023-10-09T08:21:19.352Z,983.87
2023-10-09T08:22:19.311Z,983.86
2023-10-09T08:23:19.290Z,983.85
2023-10-09T08:24:19.294Z,983.84
2023-10-09T08:25:19.264Z,983.85
2023-10-09T08:26:19.261Z,983.91
2023-10-09T08:27:19.304Z,983.88
2023-10-09T08:28:19.221Z,983.91
2023-10-09T08:29:19.219Z,983.96
2023-10-09T08:30:19.286Z,983.86
2023-10-09T08:31:19.217Z,983.86
2023-10-09T08:34:15.343Z,983.82
2023-10-09T08:35:20.346Z,983.86
2023-10-09T08:36:19.293Z,983.94
2023-10-09T08:37:19.265Z,983.94
2023-10-09T08:38:19.121Z,983.95
2023-10-09T08:39:19.075Z,983.94
2023-10-09T08:40:19.061Z,983.94
2023-10-09T08:41:19.275Z,983.92
2023-10-09T08:42:19.055Z,983.96
2023-10-09T08:43:19.125Z,983.88
2023-10-09T08:44:19.030Z,983.92
2023-10-09T08:45:19.031Z,983.90
2023-10-09T08:46:19.018Z,984.00
2023-10-09T08:47:19.031Z,983.98
2023-10-09T08:48:19.082Z,983.99
2023-10-09T08:49:19.006Z,984.00
2023-10-09T08:50:18.945Z,984.03
2023-10-09T08:51:18.950Z,983.99
2023-10-09T08:52:18.921Z,984.01
2023-10-09T08:53:18.926Z,984.02
2023-10-09T08:54:18.913Z,984.08
2023-10-09T08:55:18.891Z,984.01
2023-10-09T08:56:18.939Z,984.09
2023-10-09T08:57:18.859Z,983.99
2023-10-09T08:58:18.836Z,983.98
2023-10-09T08:59:18.867Z,984.08
2023-10-09T09:00:18.820Z,984.01
2023-10-09T09:01:18.856Z,984.00
2023-10-09T09:02:18.894Z,983.93
2023-10-09T09:03:18.789Z,983.95
2023-10-09T09:04:18.759Z,983.92
2023-10-09T09:05:18.918Z,983.95
2023-10-09T09:06:18.738Z,983.93
2023-10-09T09:07:18.735Z,983.87
2023-10-09T09:08:18.734Z,983.93
2023-10-09T09:09:18.711Z,983.86
2023-10-09T09:10:19.363Z,983.88
2023-10-09T09:11:18.728Z,983.80
2023-10-09T09:12:18.677Z,983.78
2023-10-09T09:13:18.660Z,983.85
2023-10-09T09:14:18.624Z,983.87
2023-10-09T09:15:18.651Z,983.86
2023-10-09T09:16:18.666Z,983.81
2023-10-09T09:17:18.667Z,983.79
2023-10-09T09:18:18.842Z,983.81
2023-10-09T09:19:19.021Z,983.85
2023-10-09T09:20:18.555Z,983.83
2023-10-09T09:21:18.557Z,983.80
2023-10-09T09:22:18.530Z,983.93
2023-10-09T09:23:18.551Z,983.99
2023-10-09T09:24:18.526Z,983.98
2023-10-09T09:25:18.503Z,984.01
2023-10-09T09:26:18.505Z,983.98
2023-10-09T09:27:18.468Z,983.89
2023-10-09T09:28:18.453Z,983.95
2023-10-09T09:29:18.443Z,983.97
2023-10-09T09:30:18.443Z,983.97
2023-10-09T09:31:18.480Z,983.97
2023-10-09T09:32:18.430Z,983.99
2023-10-09T09:33:18.385Z,983.97
2023-10-09T09:34:18.394Z,984.06
2023-10-09T09:35:18.376Z,984.04
2023-10-09T09:36:18.359Z,984.01
2023-10-09T09:37:18.341Z,983.95
2023-10-09T09:38:18.329Z,984.06
2023-10-09T09:39:18.309Z,984.07
2023-10-09T09:40:18.309Z,984.06
2023-10-09T09:41:18.304Z,984.01
2023-10-09T09:42:18.306Z,983.94
2023-10-09T09:43:18.262Z,983.97
2023-10-09T09:44:18.259Z,983.98
2023-10-09T09:45:18.237Z,984.16
2023-10-09T09:46:18.266Z,984.21
2023-10-09T09:47:18.320Z,984.16
2023-10-09T10:03:35.156Z,984.10
2023-10-09T10:04:35.057Z,984.14
2023-10-09T10:05:35.022Z,984.14
2023-10-09T10:06:35.045Z,984.13
2023-10-09T10:07:35.010Z,984.17
2023-10-09T10:08:35.032Z,984.17
2023-10-09T10:09:34.974Z,984.18
2023-10-09T10:10:35.019Z,984.19
2023-10-09T10:11:34.943Z,984.23
2023-10-09T10:12:34.957Z,984.17
2023-10-09T10:13:34.944Z,984.30
2023-10-09T10:14:34.928Z,984.22
2023-10-09T10:15:37.600Z,984.23
2023-10-09T10:16:34.942Z,984.24
2023-10-09T10:17:35.029Z,984.25
2023-10-09T10:18:34.880Z,984.16
2023-10-09T10:19:34.882Z,984.17
2023-10-09T10:20:34.837Z,984.15
2023-10-09T10:21:34.824Z,984.17
2023-10-09T10:22:34.822Z,984.11
2023-10-09T10:23:34.789Z,984.14
2023-10-09T10:24:34.793Z,984.16
2023-10-09T10:25:34.798Z,984.17
2023-10-09T10:26:34.760Z,984.22
2023-10-09T10:27:34.742Z,984.08
2023-10-09T10:28:34.732Z,984.13
2023-10-09T10:29:34.735Z,984.11
2023-10-09T10:30:35.033Z,984.07
2023-10-09T10:31:34.707Z,984.09
2023-10-09T10:32:34.677Z,984.08
2023-10-09T10:33:34.659Z,984.08
2023-10-09T10:34:34.697Z,984.02
2023-10-09T10:35:34.664Z,983.98
2023-10-09T10:36:34.629Z,983.99
2023-10-09T10:37:34.645Z,984.04
2023-10-09T10:38:34.599Z,983.99
2023-10-09T10:39:34.573Z,984.00
2023-10-09T10:40:34.607Z,983.94
2023-10-09T10:41:34.550Z,983.90
2023-10-09T10:42:34.550Z,983.83
2023-10-09T10:43:34.785Z,983.88
2023-10-09T10:44:34.500Z,983.90
2023-10-09T10:45:34.507Z,983.93
2023-10-09T10:46:34.620Z,983.91
2023-10-09T10:47:34.634Z,983.92
2023-10-09T10:48:34.570Z,983.92
2023-10-09T10:49:34.573Z,983.92
2023-10-09T10:50:34.449Z,983.89
2023-10-09T10:51:34.469Z,983.81
2023-10-09T10:52:34.537Z,983.80
2023-10-09T10:53:34.433Z,983.81
2023-10-09T10:54:34.383Z,983.75
2023-10-09T10:55:34.397Z,983.68
2023-10-09T10:56:34.347Z,983.71
2023-10-09T10:57:34.355Z,983.69
2023-10-09T10:58:34.346Z,983.72
2023-10-09T10:59:34.315Z,983.62
2023-10-09T11:00:34.338Z,983.59
2023-10-09T11:01:34.370Z,983.57
2023-10-09T11:02:34.364Z,983.55
2023-10-09T11:03:34.264Z,983.47
2023-10-09T11:04:34.569Z,983.46
2023-10-09T11:05:34.266Z,983.44
2023-10-09T11:06:34.231Z,983.50
2023-10-09T11:07:34.340Z,983.46
2023-10-09T11:08:34.200Z,983.47
2023-10-09T11:09:46.745Z,983.55
2023-10-09T11:10:35.216Z,983.50
2023-10-09T11:11:34.168Z,983.41
2023-10-09T11:12:34.147Z,983.39
2023-10-09T11:13:34.246Z,983.45
2023-10-09T11:14:34.118Z,983.34
2023-10-09T11:15:34.112Z,983.35
2023-10-09T11:16:34.117Z,983.31
2023-10-09T11:17:34.123Z,983.38
2023-10-09T11:18:34.111Z,983.41
2023-10-09T11:19:34.110Z,983.33
2023-10-09T11:20:34.038Z,983.36
2023-10-09T11:21:34.034Z,983.38
2023-10-09T11:22:34.090Z,983.33
2023-10-09T11:23:34.014Z,983.33
2023-10-09T11:24:33.980Z,983.43
2023-10-09T11:25:34.037Z,983.43
2023-10-09T11:26:33.952Z,983.49
2023-10-09T11:27:34.257Z,983.50
2023-10-09T11:28:33.965Z,983.56
2023-10-09T11:29:33.932Z,983.52
2023-10-09T11:30:34.305Z,983.59
2023-10-09T11:31:33.903Z,983.58
2023-10-09T11:32:33.937Z,983.57
2023-10-09T11:33:33.861Z,983.57
2023-10-09T11:34:33.888Z,983.62
2023-10-09T11:35:33.838Z,983.62
2023-10-09T11:36:33.889Z,983.65
2023-10-09T11:37:33.824Z,983.68
2023-10-09T11:38:33.789Z,983.73
2023-10-09T11:39:33.804Z,983.75
2023-10-09T11:40:33.896Z,983.81
2023-10-09T11:41:33.769Z,983.91
2023-10-09T11:42:33.741Z,984.02
2023-10-09T11:43:33.920Z,984.01
2023-10-09T11:44:33.715Z,983.90
2023-10-09T11:45:33.750Z,983.85
2023-10-09T11:46:33.767Z,983.75
2023-10-09T11:47:33.801Z,983.66
2023-10-09T11:48:33.668Z,983.56
2023-10-09T11:49:33.717Z,983.46
2023-10-09T11:50:33.659Z,983.45
2023-10-09T11:51:33.636Z,983.47
2023-10-09T11:52:33.659Z,983.44
2023-10-09T11:53:33.624Z,983.39
2023-10-09T11:54:33.592Z,983.41
2023-10-09T11:55:33.647Z,983.48
2023-10-09T11:56:33.598Z,983.47
2023-10-09T11:57:33.578Z,983.51
2023-10-09T11:58:33.573Z,983.54
2023-10-09T11:59:33.562Z,983.67
2023-10-09T12:00:33.558Z,983.78
2023-10-09T12:01:33.543Z,983.86
2023-10-09T12:02:33.600Z,983.97
2023-10-09T12:03:33.677Z,984.04
2023-10-09T12:04:33.611Z,984.16
2023-10-09T12:05:33.480Z,984.20
2023-10-09T12:06:33.713Z,984.14
2023-10-09T12:07:33.436Z,984.12
2023-10-09T12:08:33.426Z,984.18
2023-10-09T12:09:33.400Z,984.28
2023-10-09T12:10:33.421Z,984.39
2023-10-09T12:11:33.406Z,984.45
2023-10-09T12:12:33.356Z,984.40
2023-10-09T12:13:33.378Z,984.38
2023-10-09T12:14:33.310Z,984.47
2023-10-09T12:15:33.335Z,984.44
2023-10-09T12:16:33.391Z,984.50
2023-10-09T12:17:33.458Z,984.55
2023-10-09T12:18:33.329Z,984.64
2023-10-09T12:19:33.331Z,984.55
2023-10-09T12:20:33.312Z,984.56
2023-10-09T12:21:33.265Z,984.59
2023-10-09T12:22:33.252Z,984.51
2023-10-09T12:23:33.204Z,984.38
2023-10-09T12:24:33.310Z,984.25
2023-10-09T12:25:33.224Z,984.19
2023-10-09T12:26:33.171Z,984.11
2023-10-09T12:27:33.171Z,984.05
2023-10-09T12:28:33.180Z,983.88
2023-10-09T12:29:33.133Z,983.59
2023-10-09T12:30:33.116Z,983.49
2023-10-09T12:31:33.127Z,983.43
2023-10-09T12:32:33.146Z,983.39
2023-10-09T12:33:33.148Z,983.33
2023-10-09T12:34:33.098Z,983.23
2023-10-09T12:35:35.207Z,983.04
2023-10-09T12:36:33.022Z,982.96
2023-10-09T12:37:33.090Z,982.88
2023-10-09T12:38:33.129Z,982.74
2023-10-09T12:39:32.989Z,982.63
2023-10-09T12:40:33.007Z,982.58
2023-10-09T12:41:32.967Z,982.58
2023-10-09T12:42:32.945Z,982.63
2023-10-09T12:43:32.992Z,982.60
2023-10-09T12:44:32.938Z,982.55
2023-10-09T12:45:32.922Z,982.60
2023-10-09T12:46:32.945Z,982.60
2023-10-09T12:47:32.988Z,982.59
2023-10-09T12:48:32.944Z,982.56
2023-10-09T12:49:32.913Z,982.49
2023-10-09T12:50:32.850Z,982.50
2023-10-09T12:51:32.844Z,982.49
2023-10-09T12:52:32.854Z,982.50
2023-10-09T12:53:32.868Z,982.48
2023-10-09T12:54:32.800Z,982.43
2023-10-09T12:55:33.053Z,982.48
2023-10-09T12:56:32.773Z,982.42
2023-10-09T12:57:32.762Z,982.45
2023-10-09T12:58:32.841Z,982.41